sensor_id;sensor_type;location;lat;lon;timestamp;temperature;humidity
5850;DHT22;2951;47.712;9.400;2023-08-01T00:00:05;19.00;99.90
5850;DHT22;2951;47.712;9.400;2023-08-01T00:02:34;19.00;99.90
5850;DHT22;2951;47.712;9.400;2023-08-01T00:05:00;19.00;99.90
5850;DHT22;2951;47.712;9.400;2023-08-01T00:07:27;19.00;99.90
5850;DHT22;2951;47.712;9.400;2023-08-01T00:09:54;19.00;99.90
5850;DHT22;2951;47.712;9.400;2023-08-01T00:12:21;19.00;99.90
5850;DHT22;2951;47.712;9.400;2023-08-01T00:14:48;19.00;99.90
5850;DHT22;2951;47.712;9.400;2023-08-01T00:17:15;18.80;99.90
5850;DHT22;2951;47.712;9.400;2023-08-01T00:19:42;18.80;99.90
5850;DHT22;2951;47.712;9.400;2023-08-01T00:22:08;18.80;99.90
5850;DHT22;2951;47.712;9.400;2023-08-01T00:24:35;18.80;99.90
5850;DHT22;2951;47.712;9.400;2023-08-01T00:27:02;18.80;99.90
5850;DHT22;2951;47.712;9.400;2023-08-01T00:29:29;18.80;99.90
5850;DHT22;2951;47.712;9.400;2023-08-01T00:31:56;18.70;99.90
5850;DHT22;2951;47.712;9.400;2023-08-01T00:34:23;18.70;99.90
5850;DHT22;2951;47.712;9.400;2023-08-01T00:36:49;18.70;99.90
5850;DHT22;2951;47.712;9.400;2023-08-01T00:39:16;18.70;99.90
5850;DHT22;2951;47.712;9.400;2023-08-01T00:41:43;18.70;99.90
5850;DHT22;2951;47.712;9.400;2023-08-01T00:44:09;18.70;99.90
5850;DHT22;2951;47.712;9.400;2023-08-01T00:46:36;18.70;99.90
5850;DHT22;2951;47.712;9.400;2023-08-01T00:49:03;18.70;99.90
5850;DHT22;2951;47.712;9.400;2023-08-01T00:51:30;18.70;99.90
5850;DHT22;2951;47.712;9.400;2023-08-01T00:53:58;18.70;99.90
5850;DHT22;2951;47.712;9.400;2023-08-01T00:56:25;18.70;99.90
5850;DHT22;2951;47.712;9.400;2023-08-01T00:58:52;18.70;99.90
5850;DHT22;2951;47.712;9.400;2023-08-01T01:01:18;18.60;99.90
5850;DHT22;2951;47.712;9.400;2023-08-01T01:03:46;18.60;99.90
5850;DHT22;2951;47.712;9.400;2023-08-01T01:08:46;18.60;99.90
5850;DHT22;2951;47.712;9.400;2023-08-01T01:11:12;18.60;99.90
5850;DHT22;2951;47.712;9.400;2023-08-01T01:13:40;18.50;99.90
5850;DHT22;2951;47.712;9.400;2023-08-01T01:16:06;18.50;99.90
5850;DHT22;2951;47.712;9.400;2023-08-01T01:18:33;18.40;99.90
5850;DHT22;2951;47.712;9.400;2023-08-01T01:21:00;18.40;99.90
5850;DHT22;2951;47.712;9.400;2023-08-01T01:23:26;18.40;99.90
5850;DHT22;2951;47.712;9.400;2023-08-01T01:25:54;18.30;99.90
5850;DHT22;2951;47.712;9.400;2023-08-01T01:28:21;18.30;99.90
5850;DHT22;2951;47.712;9.400;2023-08-01T01:30:48;18.30;99.90
5850;DHT22;2951;47.712;9.400;2023-08-01T01:33:15;18.40;99.90
5850;DHT22;2951;47.712;9.400;2023-08-01T01:35:42;18.30;99.90
5850;DHT22;2951;47.712;9.400;2023-08-01T01:38:09;18.40;99.90
5850;DHT22;2951;47.712;9.400;2023-08-01T01:40:36;18.40;99.90
5850;DHT22;2951;47.712;9.400;2023-08-01T01:43:02;18.50;99.90
5850;DHT22;2951;47.712;9.400;2023-08-01T01:45:29;18.60;99.90
5850;DHT22;2951;47.712;9.400;2023-08-01T01:47:56;18.60;99.90
5850;DHT22;2951;47.712;9.400;2023-08-01T01:50:22;18.60;99.90
5850;DHT22;2951;47.712;9.400;2023-08-01T01:52:49;18.50;99.90
5850;DHT22;2951;47.712;9.400;2023-08-01T01:55:16;18.50;99.90
5850;DHT22;2951;47.712;9.400;2023-08-01T01:57:42;18.50;99.90
5850;DHT22;2951;47.712;9.400;2023-08-01T02:00:09;18.40;99.90
5850;DHT22;2951;47.712;9.400;2023-08-01T02:02:36;18.40;99.90
5850;DHT22;2951;47.712;9.400;2023-08-01T02:05:03;18.50;99.90
5850;DHT22;2951;47.712;9.400;2023-08-01T02:07:30;18.40;99.90
5850;DHT22;2951;47.712;9.400;2023-08-01T02:09:57;18.40;99.90
5850;DHT22;2951;47.712;9.400;2023-08-01T02:12:24;18.40;99.90
5850;DHT22;2951;47.712;9.400;2023-08-01T02:14:50;18.40;99.90
5850;DHT22;2951;47.712;9.400;2023-08-01T02:17:17;18.40;99.90
5850;DHT22;2951;47.712;9.400;2023-08-01T02:19:44;18.30;99.90
5850;DHT22;2951;47.712;9.400;2023-08-01T02:22:10;18.30;99.90
5850;DHT22;2951;47.712;9.400;2023-08-01T02:24:37;18.30;99.90
5850;DHT22;2951;47.712;9.400;2023-08-01T02:27:04;18.30;99.90
5850;DHT22;2951;47.712;9.400;2023-08-01T02:29:31;18.30;99.90
5850;DHT22;2951;47.712;9.400;2023-08-01T02:31:57;18.30;99.90
5850;DHT22;2951;47.712;9.400;2023-08-01T02:34:24;18.30;99.90
5850;DHT22;2951;47.712;9.400;2023-08-01T02:36:51;18.40;99.90
5850;DHT22;2951;47.712;9.400;2023-08-01T02:39:18;18.30;99.90
5850;DHT22;2951;47.712;9.400;2023-08-01T02:41:45;18.30;99.90
5850;DHT22;2951;47.712;9.400;2023-08-01T02:44:11;18.20;99.90
5850;DHT22;2951;47.712;9.400;2023-08-01T02:46:39;18.30;99.90
5850;DHT22;2951;47.712;9.400;2023-08-01T02:49:06;18.20;99.90
5850;DHT22;2951;47.712;9.400;2023-08-01T02:51:33;18.20;99.90
5850;DHT22;2951;47.712;9.400;2023-08-01T02:53:59;18.30;99.90
5850;DHT22;2951;47.712;9.400;2023-08-01T02:56:26;18.30;99.90
5850;DHT22;2951;47.712;9.400;2023-08-01T02:58:54;18.30;99.90
5850;DHT22;2951;47.712;9.400;2023-08-01T03:01:22;18.30;99.90
5850;DHT22;2951;47.712;9.400;2023-08-01T03:03:49;18.30;99.90
5850;DHT22;2951;47.712;9.400;2023-08-01T03:06:15;18.30;99.90
5850;DHT22;2951;47.712;9.400;2023-08-01T03:08:42;18.20;99.90
5850;DHT22;2951;47.712;9.400;2023-08-01T03:11:09;18.20;99.90
5850;DHT22;2951;47.712;9.400;2023-08-01T03:13:36;18.40;99.90
5850;DHT22;2951;47.712;9.400;2023-08-01T03:16:03;18.70;99.90
5850;DHT22;2951;47.712;9.400;2023-08-01T03:18:31;18.80;99.90
5850;DHT22;2951;47.712;9.400;2023-08-01T03:20:57;18.80;99.90
5850;DHT22;2951;47.712;9.400;2023-08-01T03:23:24;18.90;99.90
5850;DHT22;2951;47.712;9.400;2023-08-01T03:25:51;18.80;99.90
5850;DHT22;2951;47.712;9.400;2023-08-01T03:28:18;18.80;99.90
5850;DHT22;2951;47.712;9.400;2023-08-01T03:30:44;18.80;99.90
5850;DHT22;2951;47.712;9.400;2023-08-01T03:33:11;18.80;99.90
5850;DHT22;2951;47.712;9.400;2023-08-01T03:35:38;18.80;99.90
5850;DHT22;2951;47.712;9.400;2023-08-01T03:38:04;18.80;99.90
5850;DHT22;2951;47.712;9.400;2023-08-01T03:40:31;18.90;99.90
5850;DHT22;2951;47.712;9.400;2023-08-01T03:42:58;18.90;99.90
5850;DHT22;2951;47.712;9.400;2023-08-01T03:45:25;18.90;99.90
5850;DHT22;2951;47.712;9.400;2023-08-01T03:47:52;18.90;99.90
5850;DHT22;2951;47.712;9.400;2023-08-01T03:50:19;18.90;99.90
5850;DHT22;2951;47.712;9.400;2023-08-01T03:52:45;18.90;99.90
5850;DHT22;2951;47.712;9.400;2023-08-01T03:55:12;18.90;99.90
5850;DHT22;2951;47.712;9.400;2023-08-01T03:57:39;18.90;99.90
5850;DHT22;2951;47.712;9.400;2023-08-01T04:00:09;18.90;99.90
5850;DHT22;2951;47.712;9.400;2023-08-01T04:02:45;19.00;99.90
5850;DHT22;2951;47.712;9.400;2023-08-01T04:05:14;19.00;99.90
5850;DHT22;2951;47.712;9.400;2023-08-01T04:07:41;19.00;99.90
5850;DHT22;2951;47.712;9.400;2023-08-01T04:10:08;19.00;99.90
5850;DHT22;2951;47.712;9.400;2023-08-01T04:12:35;19.00;99.90
5850;DHT22;2951;47.712;9.400;2023-08-01T04:15:02;19.00;99.90
5850;DHT22;2951;47.712;9.400;2023-08-01T04:17:28;19.10;99.90
5850;DHT22;2951;47.712;9.400;2023-08-01T04:19:56;19.20;99.90
5850;DHT22;2951;47.712;9.400;2023-08-01T04:22:23;19.30;99.90
5850;DHT22;2951;47.712;9.400;2023-08-01T04:24:49;19.30;99.90
5850;DHT22;2951;47.712;9.400;2023-08-01T04:27:17;19.40;99.90
5850;DHT22;2951;47.712;9.400;2023-08-01T04:29:43;19.40;99.90
5850;DHT22;2951;47.712;9.400;2023-08-01T04:32:10;19.40;99.90
5850;DHT22;2951;47.712;9.400;2023-08-01T04:34:41;19.40;99.90
5850;DHT22;2951;47.712;9.400;2023-08-01T04:37:07;19.50;99.90
5850;DHT22;2951;47.712;9.400;2023-08-01T04:39:34;19.50;99.90
5850;DHT22;2951;47.712;9.400;2023-08-01T04:42:01;19.50;99.90
5850;DHT22;2951;47.712;9.400;2023-08-01T04:44:28;19.50;99.90
5850;DHT22;2951;47.712;9.400;2023-08-01T04:46:56;19.50;99.90
5850;DHT22;2951;47.712;9.400;2023-08-01T04:49:22;19.50;99.90
5850;DHT22;2951;47.712;9.400;2023-08-01T04:51:50;19.60;99.90
5850;DHT22;2951;47.712;9.400;2023-08-01T04:54:17;19.60;99.90
5850;DHT22;2951;47.712;9.400;2023-08-01T04:56:44;19.50;99.90
5850;DHT22;2951;47.712;9.400;2023-08-01T04:59:10;19.60;99.90
5850;DHT22;2951;47.712;9.400;2023-08-01T05:01:37;19.50;99.90
5850;DHT22;2951;47.712;9.400;2023-08-01T05:04:04;19.50;99.90
5850;DHT22;2951;47.712;9.400;2023-08-01T05:06:31;19.50;99.90
5850;DHT22;2951;47.712;9.400;2023-08-01T05:08:57;19.50;99.90
5850;DHT22;2951;47.712;9.400;2023-08-01T05:11:24;19.60;99.90
5850;DHT22;2951;47.712;9.400;2023-08-01T05:13:51;19.60;99.90
5850;DHT22;2951;47.712;9.400;2023-08-01T05:16:18;19.60;99.90
5850;DHT22;2951;47.712;9.400;2023-08-01T05:18:44;19.60;99.90
5850;DHT22;2951;47.712;9.400;2023-08-01T05:21:11;19.50;99.90
5850;DHT22;2951;47.712;9.400;2023-08-01T05:23:38;19.50;99.90
5850;DHT22;2951;47.712;9.400;2023-08-01T05:26:04;19.50;99.90
5850;DHT22;2951;47.712;9.400;2023-08-01T05:28:31;19.50;99.90
5850;DHT22;2951;47.712;9.400;2023-08-01T05:30:58;19.50;99.90
5850;DHT22;2951;47.712;9.400;2023-08-01T05:33:25;19.30;99.90
5850;DHT22;2951;47.712;9.400;2023-08-01T05:35:51;19.20;99.90
5850;DHT22;2951;47.712;9.400;2023-08-01T05:38:18;19.00;99.90
5850;DHT22;2951;47.712;9.400;2023-08-01T05:40:45;18.90;99.90
5850;DHT22;2951;47.712;9.400;2023-08-01T05:43:11;18.90;99.90
5850;DHT22;2951;47.712;9.400;2023-08-01T05:45:39;18.80;99.90
5850;DHT22;2951;47.712;9.400;2023-08-01T05:48:06;18.70;99.90
5850;DHT22;2951;47.712;9.400;2023-08-01T05:50:32;18.70;99.90
5850;DHT22;2951;47.712;9.400;2023-08-01T05:52:59;18.70;99.90
5850;DHT22;2951;47.712;9.400;2023-08-01T05:55:26;18.80;99.90
5850;DHT22;2951;47.712;9.400;2023-08-01T05:57:53;18.80;99.90
5850;DHT22;2951;47.712;9.400;2023-08-01T06:00:20;18.70;99.90
5850;DHT22;2951;47.712;9.400;2023-08-01T06:02:48;18.80;99.90
5850;DHT22;2951;47.712;9.400;2023-08-01T06:05:15;18.80;99.90
5850;DHT22;2951;47.712;9.400;2023-08-01T06:07:42;18.80;99.90
5850;DHT22;2951;47.712;9.400;2023-08-01T06:10:09;18.80;99.90
5850;DHT22;2951;47.712;9.400;2023-08-01T06:12:36;18.80;99.90
5850;DHT22;2951;47.712;9.400;2023-08-01T06:15:03;18.80;99.90
5850;DHT22;2951;47.712;9.400;2023-08-01T06:17:30;18.80;99.90
5850;DHT22;2951;47.712;9.400;2023-08-01T06:19:57;18.80;99.90
5850;DHT22;2951;47.712;9.400;2023-08-01T06:22:23;18.90;99.90
5850;DHT22;2951;47.712;9.400;2023-08-01T06:24:50;18.80;99.90
5850;DHT22;2951;47.712;9.400;2023-08-01T06:27:17;18.70;99.90
5850;DHT22;2951;47.712;9.400;2023-08-01T06:29:44;18.60;99.90
5850;DHT22;2951;47.712;9.400;2023-08-01T06:32:11;18.50;99.90
5850;DHT22;2951;47.712;9.400;2023-08-01T06:34:38;18.50;99.90
5850;DHT22;2951;47.712;9.400;2023-08-01T06:37:05;18.50;99.90
5850;DHT22;2951;47.712;9.400;2023-08-01T06:39:31;18.40;99.90
5850;DHT22;2951;47.712;9.400;2023-08-01T06:41:58;18.40;99.90
5850;DHT22;2951;47.712;9.400;2023-08-01T06:44:25;18.40;99.90
5850;DHT22;2951;47.712;9.400;2023-08-01T06:46:51;18.30;99.90
5850;DHT22;2951;47.712;9.400;2023-08-01T06:49:18;18.30;99.90
5850;DHT22;2951;47.712;9.400;2023-08-01T06:51:45;18.20;99.90
5850;DHT22;2951;47.712;9.400;2023-08-01T06:54:11;18.30;99.90
5850;DHT22;2951;47.712;9.400;2023-08-01T06:56:38;18.40;99.90
5850;DHT22;2951;47.712;9.400;2023-08-01T06:59:05;18.40;99.90
5850;DHT22;2951;47.712;9.400;2023-08-01T07:01:32;18.40;99.90
5850;DHT22;2951;47.712;9.400;2023-08-01T07:03:59;18.40;99.90
5850;DHT22;2951;47.712;9.400;2023-08-01T07:06:26;18.40;99.90
5850;DHT22;2951;47.712;9.400;2023-08-01T07:08:53;18.30;99.90
5850;DHT22;2951;47.712;9.400;2023-08-01T07:11:20;18.40;99.90
5850;DHT22;2951;47.712;9.400;2023-08-01T07:13:46;18.40;99.90
5850;DHT22;2951;47.712;9.400;2023-08-01T07:16:13;18.40;99.90
5850;DHT22;2951;47.712;9.400;2023-08-01T07:18:40;18.40;99.90
5850;DHT22;2951;47.712;9.400;2023-08-01T07:21:06;18.30;99.90
5850;DHT22;2951;47.712;9.400;2023-08-01T07:23:34;18.30;99.90
5850;DHT22;2951;47.712;9.400;2023-08-01T07:26:01;18.20;99.90
5850;DHT22;2951;47.712;9.400;2023-08-01T07:28:27;18.20;99.90
5850;DHT22;2951;47.712;9.400;2023-08-01T07:33:27;18.20;99.90
5850;DHT22;2951;47.712;9.400;2023-08-01T07:35:54;18.20;99.90
5850;DHT22;2951;47.712;9.400;2023-08-01T07:38:20;18.20;99.90
5850;DHT22;2951;47.712;9.400;2023-08-01T07:40:47;18.30;99.90
5850;DHT22;2951;47.712;9.400;2023-08-01T07:43:14;18.50;99.90
5850;DHT22;2951;47.712;9.400;2023-08-01T07:45:41;18.80;99.90
5850;DHT22;2951;47.712;9.400;2023-08-01T07:48:08;18.80;99.90
5850;DHT22;2951;47.712;9.400;2023-08-01T07:50:34;18.80;99.90
5850;DHT22;2951;47.712;9.400;2023-08-01T07:53:01;18.80;99.90
5850;DHT22;2951;47.712;9.400;2023-08-01T07:55:28;18.80;99.90
5850;DHT22;2951;47.712;9.400;2023-08-01T07:57:55;18.80;99.90
5850;DHT22;2951;47.712;9.400;2023-08-01T08:00:21;18.90;99.90
5850;DHT22;2951;47.712;9.400;2023-08-01T08:02:48;18.90;99.90
5850;DHT22;2951;47.712;9.400;2023-08-01T08:05:15;18.90;99.90
5850;DHT22;2951;47.712;9.400;2023-08-01T08:07:41;18.80;99.90
5850;DHT22;2951;47.712;9.400;2023-08-01T08:10:08;18.80;99.90
5850;DHT22;2951;47.712;9.400;2023-08-01T08:12:35;18.80;99.90
5850;DHT22;2951;47.712;9.400;2023-08-01T08:15:02;18.70;99.90
5850;DHT22;2951;47.712;9.400;2023-08-01T08:17:29;18.70;99.90
5850;DHT22;2951;47.712;9.400;2023-08-01T08:19:56;18.80;99.90
5850;DHT22;2951;47.712;9.400;2023-08-01T08:22:22;18.80;99.90
5850;DHT22;2951;47.712;9.400;2023-08-01T08:24:49;18.90;99.90
5850;DHT22;2951;47.712;9.400;2023-08-01T08:27:16;19.00;99.90
5850;DHT22;2951;47.712;9.400;2023-08-01T08:29:43;18.90;99.90
5850;DHT22;2951;47.712;9.400;2023-08-01T08:32:09;19.00;99.90
5850;DHT22;2951;47.712;9.400;2023-08-01T08:34:36;19.00;99.90
5850;DHT22;2951;47.712;9.400;2023-08-01T08:37:03;18.90;99.90
5850;DHT22;2951;47.712;9.400;2023-08-01T08:39:30;18.80;99.90
5850;DHT22;2951;47.712;9.400;2023-08-01T08:41:56;18.80;99.90
5850;DHT22;2951;47.712;9.400;2023-08-01T08:44:23;18.90;99.90
5850;DHT22;2951;47.712;9.400;2023-08-01T08:46:58;18.70;99.90
5850;DHT22;2951;47.712;9.400;2023-08-01T08:49:28;18.50;99.90
5850;DHT22;2951;47.712;9.400;2023-08-01T08:51:55;18.60;99.90
5850;DHT22;2951;47.712;9.400;2023-08-01T08:54:22;18.60;99.90
5850;DHT22;2951;47.712;9.400;2023-08-01T08:56:49;18.50;99.90
5850;DHT22;2951;47.712;9.400;2023-08-01T08:59:16;18.50;99.90
5850;DHT22;2951;47.712;9.400;2023-08-01T09:01:43;18.30;99.90
5850;DHT22;2951;47.712;9.400;2023-08-01T09:04:09;18.20;99.90
5850;DHT22;2951;47.712;9.400;2023-08-01T09:06:46;18.00;99.90
5850;DHT22;2951;47.712;9.400;2023-08-01T09:09:17;17.90;99.90
5850;DHT22;2951;47.712;9.400;2023-08-01T09:14:11;17.60;99.90
5850;DHT22;2951;47.712;9.400;2023-08-01T09:16:39;17.50;99.90
5850;DHT22;2951;47.712;9.400;2023-08-01T09:19:06;17.50;99.90
5850;DHT22;2951;47.712;9.400;2023-08-01T09:21:38;17.40;99.90
5850;DHT22;2951;47.712;9.400;2023-08-01T09:24:09;17.40;99.90
5850;DHT22;2951;47.712;9.400;2023-08-01T09:26:36;17.30;99.90
5850;DHT22;2951;47.712;9.400;2023-08-01T09:29:03;17.20;99.90
5850;DHT22;2951;47.712;9.400;2023-08-01T09:31:31;17.20;99.90
5850;DHT22;2951;47.712;9.400;2023-08-01T09:33:58;17.30;99.90
5850;DHT22;2951;47.712;9.400;2023-08-01T09:36:25;17.20;99.90
5850;DHT22;2951;47.712;9.400;2023-08-01T09:38:57;17.10;99.90
5850;DHT22;2951;47.712;9.400;2023-08-01T09:41:24;17.10;99.90
5850;DHT22;2951;47.712;9.400;2023-08-01T09:43:50;17.20;99.90
5850;DHT22;2951;47.712;9.400;2023-08-01T09:46:17;17.20;99.90
5850;DHT22;2951;47.712;9.400;2023-08-01T09:48:44;17.30;99.90
5850;DHT22;2951;47.712;9.400;2023-08-01T09:51:11;17.40;99.90
5850;DHT22;2951;47.712;9.400;2023-08-01T09:53:55;17.30;99.90
5850;DHT22;2951;47.712;9.400;2023-08-01T09:56:26;17.30;99.90
5850;DHT22;2951;47.712;9.400;2023-08-01T09:58:53;17.20;99.90
5850;DHT22;2951;47.712;9.400;2023-08-01T10:01:21;17.20;99.90
5850;DHT22;2951;47.712;9.400;2023-08-01T10:03:49;17.20;99.90
5850;DHT22;2951;47.712;9.400;2023-08-01T10:06:17;17.10;99.90
5850;DHT22;2951;47.712;9.400;2023-08-01T10:08:45;17.10;99.90
5850;DHT22;2951;47.712;9.400;2023-08-01T10:11:17;17.10;99.90
5850;DHT22;2951;47.712;9.400;2023-08-01T10:13:44;17.10;99.90
5850;DHT22;2951;47.712;9.400;2023-08-01T10:16:12;17.10;99.90
5850;DHT22;2951;47.712;9.400;2023-08-01T10:18:39;17.00;99.90
5850;DHT22;2951;47.712;9.400;2023-08-01T10:21:06;17.20;99.90
5850;DHT22;2951;47.712;9.400;2023-08-01T10:23:33;17.30;99.90
5850;DHT22;2951;47.712;9.400;2023-08-01T10:26:00;17.40;99.90
5850;DHT22;2951;47.712;9.400;2023-08-01T10:28:33;17.60;99.90
5850;DHT22;2951;47.712;9.400;2023-08-01T10:31:10;17.70;99.90
5850;DHT22;2951;47.712;9.400;2023-08-01T10:33:37;17.80;99.90
5850;DHT22;2951;47.712;9.400;2023-08-01T10:36:17;17.90;99.90
5850;DHT22;2951;47.712;9.400;2023-08-01T10:38:45;18.00;99.90
5850;DHT22;2951;47.712;9.400;2023-08-01T10:41:21;18.20;99.90
5850;DHT22;2951;47.712;9.400;2023-08-01T10:43:47;18.40;99.90
5850;DHT22;2951;47.712;9.400;2023-08-01T10:46:14;18.50;99.90
5850;DHT22;2951;47.712;9.400;2023-08-01T10:48:51;18.60;99.90
5850;DHT22;2951;47.712;9.400;2023-08-01T10:51:18;18.70;99.90
5850;DHT22;2951;47.712;9.400;2023-08-01T10:53:45;18.90;99.90
5850;DHT22;2951;47.712;9.400;2023-08-01T10:56:15;19.00;99.90
5850;DHT22;2951;47.712;9.400;2023-08-01T10:58:42;18.90;99.90
5850;DHT22;2951;47.712;9.400;2023-08-01T11:01:09;19.00;99.90
5850;DHT22;2951;47.712;9.400;2023-08-01T11:03:37;19.00;99.90
5850;DHT22;2951;47.712;9.400;2023-08-01T11:06:04;18.90;99.90
5850;DHT22;2951;47.712;9.400;2023-08-01T11:08:38;18.60;99.90
5850;DHT22;2951;47.712;9.400;2023-08-01T11:11:05;18.50;99.90
5850;DHT22;2951;47.712;9.400;2023-08-01T11:13:33;18.50;99.90
5850;DHT22;2951;47.712;9.400;2023-08-01T11:16:03;18.60;99.90
5850;DHT22;2951;47.712;9.400;2023-08-01T11:18:30;18.90;99.90
5850;DHT22;2951;47.712;9.400;2023-08-01T11:20:57;19.20;99.90
5850;DHT22;2951;47.712;9.400;2023-08-01T11:23:27;19.50;99.90
5850;DHT22;2951;47.712;9.400;2023-08-01T11:25:56;19.70;99.90
5850;DHT22;2951;47.712;9.400;2023-08-01T11:28:24;19.80;99.90
5850;DHT22;2951;47.712;9.400;2023-08-01T11:30:51;19.90;99.90
5850;DHT22;2951;47.712;9.400;2023-08-01T11:35:45;20.00;99.90
5850;DHT22;2951;47.712;9.400;2023-08-01T11:38:11;20.20;99.90
5850;DHT22;2951;47.712;9.400;2023-08-01T11:40:38;20.30;99.90
5850;DHT22;2951;47.712;9.400;2023-08-01T11:43:05;20.20;99.90
5850;DHT22;2951;47.712;9.400;2023-08-01T11:45:31;20.10;99.90
5850;DHT22;2951;47.712;9.400;2023-08-01T11:47:58;20.00;99.90
5850;DHT22;2951;47.712;9.400;2023-08-01T11:50:25;19.90;99.90
5850;DHT22;2951;47.712;9.400;2023-08-01T11:52:52;19.90;99.90
5850;DHT22;2951;47.712;9.400;2023-08-01T11:55:20;19.80;99.90
5850;DHT22;2951;47.712;9.400;2023-08-01T11:57:54;19.60;99.90
5850;DHT22;2951;47.712;9.400;2023-08-01T12:00:21;19.80;99.90
5850;DHT22;2951;47.712;9.400;2023-08-01T12:02:48;20.00;99.90
5850;DHT22;2951;47.712;9.400;2023-08-01T12:05:21;20.10;99.90
5850;DHT22;2951;47.712;9.400;2023-08-01T12:07:48;19.80;99.90
5850;DHT22;2951;47.712;9.400;2023-08-01T12:10:15;19.80;99.90
5850;DHT22;2951;47.712;9.400;2023-08-01T12:12:45;20.00;99.90
5850;DHT22;2951;47.712;9.400;2023-08-01T12:15:13;20.10;99.90
5850;DHT22;2951;47.712;9.400;2023-08-01T12:17:40;20.00;99.90
5850;DHT22;2951;47.712;9.400;2023-08-01T12:20:07;19.90;99.90
5850;DHT22;2951;47.712;9.400;2023-08-01T12:22:34;20.00;99.90
5850;DHT22;2951;47.712;9.400;2023-08-01T12:25:01;20.00;99.90
5850;DHT22;2951;47.712;9.400;2023-08-01T12:27:28;20.00;99.90
5850;DHT22;2951;47.712;9.400;2023-08-01T12:29:54;20.10;99.90
5850;DHT22;2951;47.712;9.400;2023-08-01T12:32:21;20.10;99.90
5850;DHT22;2951;47.712;9.400;2023-08-01T12:34:48;20.00;99.90
5850;DHT22;2951;47.712;9.400;2023-08-01T12:37:14;20.00;99.90
5850;DHT22;2951;47.712;9.400;2023-08-01T12:39:41;20.00;99.90
5850;DHT22;2951;47.712;9.400;2023-08-01T12:42:08;19.80;99.90
5850;DHT22;2951;47.712;9.400;2023-08-01T12:44:34;19.80;99.90
5850;DHT22;2951;47.712;9.400;2023-08-01T12:47:02;19.60;99.90
5850;DHT22;2951;47.712;9.400;2023-08-01T12:49:28;19.80;99.90
5850;DHT22;2951;47.712;9.400;2023-08-01T12:51:55;19.90;99.90
5850;DHT22;2951;47.712;9.400;2023-08-01T12:54:27;20.10;99.90
5850;DHT22;2951;47.712;9.400;2023-08-01T12:56:56;20.10;99.90
5850;DHT22;2951;47.712;9.400;2023-08-01T12:59:23;20.20;99.90
5850;DHT22;2951;47.712;9.400;2023-08-01T13:01:50;20.20;99.90
5850;DHT22;2951;47.712;9.400;2023-08-01T13:04:16;20.30;99.90
5850;DHT22;2951;47.712;9.400;2023-08-01T13:06:44;20.50;99.90
5850;DHT22;2951;47.712;9.400;2023-08-01T13:09:10;20.70;99.90
5850;DHT22;2951;47.712;9.400;2023-08-01T13:11:40;20.70;99.90
5850;DHT22;2951;47.712;9.400;2023-08-01T13:14:09;20.80;99.90
5850;DHT22;2951;47.712;9.400;2023-08-01T13:16:36;20.80;99.90
5850;DHT22;2951;47.712;9.400;2023-08-01T13:19:03;20.70;99.90
5850;DHT22;2951;47.712;9.400;2023-08-01T13:21:29;20.40;99.90
5850;DHT22;2951;47.712;9.400;2023-08-01T13:23:56;20.20;99.90
5850;DHT22;2951;47.712;9.400;2023-08-01T13:26:23;20.00;99.90
5850;DHT22;2951;47.712;9.400;2023-08-01T13:28:50;19.80;99.90
5850;DHT22;2951;47.712;9.400;2023-08-01T13:31:17;19.70;99.90
5850;DHT22;2951;47.712;9.400;2023-08-01T13:33:43;19.60;99.90
5850;DHT22;2951;47.712;9.400;2023-08-01T13:36:10;19.60;99.90
5850;DHT22;2951;47.712;9.400;2023-08-01T13:38:37;19.40;99.90
5850;DHT22;2951;47.712;9.400;2023-08-01T13:41:03;19.10;99.90
5850;DHT22;2951;47.712;9.400;2023-08-01T13:43:33;19.10;99.90
5850;DHT22;2951;47.712;9.400;2023-08-01T13:46:00;19.20;99.90
5850;DHT22;2951;47.712;9.400;2023-08-01T13:48:29;19.20;99.90
5850;DHT22;2951;47.712;9.400;2023-08-01T13:50:57;19.30;99.90
5850;DHT22;2951;47.712;9.400;2023-08-01T13:53:23;19.40;99.90
5850;DHT22;2951;47.712;9.400;2023-08-01T13:55:50;19.60;99.90
5850;DHT22;2951;47.712;9.400;2023-08-01T13:58:17;19.60;99.90
5850;DHT22;2951;47.712;9.400;2023-08-01T14:00:43;19.60;99.90
5850;DHT22;2951;47.712;9.400;2023-08-01T14:03:10;19.60;99.90
5850;DHT22;2951;47.712;9.400;2023-08-01T14:05:37;19.60;99.90
5850;DHT22;2951;47.712;9.400;2023-08-01T14:08:04;19.40;99.90
5850;DHT22;2951;47.712;9.400;2023-08-01T14:10:31;19.40;99.90
5850;DHT22;2951;47.712;9.400;2023-08-01T14:12:58;19.40;99.90
5850;DHT22;2951;47.712;9.400;2023-08-01T14:15:25;19.30;99.90
5850;DHT22;2951;47.712;9.400;2023-08-01T14:17:52;19.50;99.90
5850;DHT22;2951;47.712;9.400;2023-08-01T14:20:19;19.70;99.90
5850;DHT22;2951;47.712;9.400;2023-08-01T14:22:46;19.80;99.90
5850;DHT22;2951;47.712;9.400;2023-08-01T14:25:13;19.70;99.90
5850;DHT22;2951;47.712;9.400;2023-08-01T14:27:39;19.70;99.90
5850;DHT22;2951;47.712;9.400;2023-08-01T14:30:06;20.10;99.90
5850;DHT22;2951;47.712;9.400;2023-08-01T14:32:36;20.50;99.90
5850;DHT22;2951;47.712;9.400;2023-08-01T14:35:03;20.40;99.90
5850;DHT22;2951;47.712;9.400;2023-08-01T14:37:30;20.40;99.90
5850;DHT22;2951;47.712;9.400;2023-08-01T14:39:57;20.40;99.90
5850;DHT22;2951;47.712;9.400;2023-08-01T14:42:23;20.30;99.90
5850;DHT22;2951;47.712;9.400;2023-08-01T14:44:53;20.20;99.90
5850;DHT22;2951;47.712;9.400;2023-08-01T14:47:20;20.10;99.90
5850;DHT22;2951;47.712;9.400;2023-08-01T14:49:48;20.10;99.90
5850;DHT22;2951;47.712;9.400;2023-08-01T14:52:14;20.10;99.90
5850;DHT22;2951;47.712;9.400;2023-08-01T14:54:41;20.00;99.90
5850;DHT22;2951;47.712;9.400;2023-08-01T14:57:08;20.10;99.90
5850;DHT22;2951;47.712;9.400;2023-08-01T14:59:34;20.00;99.90
5850;DHT22;2951;47.712;9.400;2023-08-01T15:02:01;19.80;99.90
5850;DHT22;2951;47.712;9.400;2023-08-01T15:04:28;19.60;99.90
5850;DHT22;2951;47.712;9.400;2023-08-01T15:06:55;19.50;99.90
5850;DHT22;2951;47.712;9.400;2023-08-01T15:09:21;19.60;99.90
5850;DHT22;2951;47.712;9.400;2023-08-01T15:11:48;19.60;99.90
5850;DHT22;2951;47.712;9.400;2023-08-01T15:14:15;19.60;99.90
5850;DHT22;2951;47.712;9.400;2023-08-01T15:16:42;20.00;99.90
5850;DHT22;2951;47.712;9.400;2023-08-01T15:19:09;20.10;99.90
5850;DHT22;2951;47.712;9.400;2023-08-01T15:21:35;20.20;99.90
5850;DHT22;2951;47.712;9.400;2023-08-01T15:24:02;20.30;99.90
5850;DHT22;2951;47.712;9.400;2023-08-01T15:26:29;20.20;99.90
5850;DHT22;2951;47.712;9.400;2023-08-01T15:28:56;20.10;99.90
5850;DHT22;2951;47.712;9.400;2023-08-01T15:31:23;20.20;99.90
5850;DHT22;2951;47.712;9.400;2023-08-01T15:33:51;20.30;99.90
5850;DHT22;2951;47.712;9.400;2023-08-01T15:36:18;20.10;99.90
5850;DHT22;2951;47.712;9.400;2023-08-01T15:38:51;19.70;99.90
5850;DHT22;2951;47.712;9.400;2023-08-01T15:41:18;19.90;99.90
5850;DHT22;2951;47.712;9.400;2023-08-01T15:43:44;19.90;99.90
5850;DHT22;2951;47.712;9.400;2023-08-01T15:46:11;19.80;99.90
5850;DHT22;2951;47.712;9.400;2023-08-01T15:48:38;19.80;99.90
5850;DHT22;2951;47.712;9.400;2023-08-01T15:51:05;19.80;99.90
5850;DHT22;2951;47.712;9.400;2023-08-01T15:53:33;19.70;99.90
5850;DHT22;2951;47.712;9.400;2023-08-01T15:56:00;19.70;99.90
5850;DHT22;2951;47.712;9.400;2023-08-01T15:58:27;19.60;99.90
5850;DHT22;2951;47.712;9.400;2023-08-01T16:00:55;19.50;99.90
5850;DHT22;2951;47.712;9.400;2023-08-01T16:03:23;19.50;99.90
5850;DHT22;2951;47.712;9.400;2023-08-01T16:05:53;19.40;99.90
5850;DHT22;2951;47.712;9.400;2023-08-01T16:08:20;19.50;99.90
5850;DHT22;2951;47.712;9.400;2023-08-01T16:10:47;19.70;99.90